San Diego International Airport
KSAN : now visible

Aeroporto :











RITROVATECI SU...

 
LOGIN :

Iscrizione | Disclaimer

   EN    FR    IT 

 









Sommario :    VFR   VFR Marginale   IFR   IFR Intensivo   IFR Molto Intensivo
Visibilità : 
Base nubi : 
>= 8 km
>= 3000ft
5 / 8 km
1000 / 3000 ft
1500m / 5 km
500 / 1000 ft
800 / 1500m
200 / 500 ft
< 800m
< 200 ft
Simboli :   Temporali  Nebbia  Neve Forte  Precipitazioni Forti  Vento > 20 kt






- Altitudine del aeroporto : 17 ft
- Codice IATA : SAN


KSAN - San Diego International

ULTIMO METAR :
  • 250851Z 00000KT 3/4SM R09/P6000FT BR OVC002 14/13 A3003 RMK AO2 SLP167 T01390133 58004

METARs OBSOLETI :
  • 250751Z 00000KT 1SM R09/P6000FT BR OVC002 14/14 A3004 RMK AO2 SLP171 CIG 002V004 T01440139 401940117
  • 250725Z 09004KT 1SM R09/P6000FT BR OVC003 14/13 A3004 RMK AO2 T01440133
  • 250651Z 00000KT 2SM BR OVC005 15/13 A3004 RMK AO2 SLP172 CIG 004V006 T01500133
  • 250635Z 00000KT 2SM BR OVC005 15/13 A3004 RMK AO2 CIG 004V006 T01500133

TAF KSAN
Valido dal 25 a 09 ore il 26 a 12 ore UTC


250842Z 2509/2612 VRB03KT 1SM BR VCFG OVC002
FM251000 VRB03KT 1/2SM FG VV002
FM251600 VRB04KT 5SM BR SCT004
FM251730 27007KT P6SM SCT250
FM260300 VRB04KT 4SM BR BKN006



MetMap, La meteo Aeronautica in un colpo d'occhio ! - Copyright ORBIFLY Dicembre 2007 - Disclaimer

ORBIFLY MET'MAP TEAM :

Programmazione e sviluppo : Alexandra Zaïnal
Concezione : Baudouin d'Aumeries
Aiuto per la programmazione : Marc-Olivier Méhu
Supporto tecnico e logistico : Manuel Goepfert
Aiuto per la traduzione : Arnaldo La Scala

Contatto : metmap@orbifly.com




FONTI E CREDITI :

   NOAA       Earth
Advisory